Sawyer, Michigan
Current Conditions -  °F | °C
As of 6:55 AM on Wednesday 28 Jan 2015 (Local Time) from KMGC Reporting Station
Clear Clear  
Wind Chill: -8°   Ceiling: Unl
Heat Index: -8°   Visibility: 10mi
Dew Point: -13°   Wind: 0mph
Humidity: 68%   Direction: NA
Pressure: 30.3"   Gusts: NA
Location:  41.89°N, 86.59°W
Report Text: KMGC 281155Z AUTO 00000KT 10SM CLR M08/M13 A3030 RMK AO2
Loading
Personal Weather Stations






























Interactive Weather Map New forecast layout! Learn more

10-Day Weather Forecast

Advertisements
Track Severe Weather on mobile